createdAt,value
2022-12-08T00:01:49.070Z,100741.66
2022-12-08T00:04:50.618Z,100739.06
2022-12-08T00:07:52.043Z,100736.47
2022-12-08T00:10:53.476Z,100730.47
2022-12-08T00:13:54.847Z,100719.41
2022-12-08T00:16:57.580Z,100720.22
2022-12-08T00:19:58.992Z,100713.34
2022-12-08T00:23:00.335Z,100707.38
2022-12-08T00:26:05.751Z,100718.31
2022-12-08T00:29:07.353Z,100711.50
2022-12-08T00:32:08.723Z,100701.31
2022-12-08T00:35:10.084Z,100700.41
2022-12-08T00:38:11.503Z,100691.88
2022-12-08T00:41:16.188Z,100696.06
2022-12-08T00:44:18.520Z,100698.56
2022-12-08T00:47:24.634Z,100687.50
2022-12-08T00:50:26.440Z,100691.69
2022-12-08T00:53:27.918Z,100686.56
2022-12-08T00:56:29.449Z,100690.78
2022-12-08T00:59:30.806Z,100672.09
2022-12-08T01:02:32.137Z,100678.03
2022-12-08T01:05:33.473Z,100671.19
2022-12-08T01:08:37.257Z,100666.03
2022-12-08T01:11:38.605Z,100665.16
2022-12-08T01:14:39.916Z,100660.91
2022-12-08T01:17:41.307Z,100665.97
2022-12-08T01:20:42.694Z,100666.81
2022-12-08T01:23:44.753Z,100660.88
2022-12-08T01:26:47.303Z,100665.13
2022-12-08T01:29:48.654Z,100664.34
2022-12-08T01:32:49.986Z,100666.09
2022-12-08T01:35:51.390Z,100666.22
2022-12-08T01:38:53.933Z,100660.38
2022-12-08T01:41:55.263Z,100663.03
2022-12-08T01:45:02.959Z,100656.31
2022-12-08T01:48:10.867Z,100651.38
2022-12-08T01:51:12.684Z,100661.56
2022-12-08T01:54:14.883Z,100652.22
2022-12-08T01:57:33.688Z,100653.06
2022-12-08T02:00:35.020Z,100642.06
2022-12-08T02:04:03.372Z,100643.78
2022-12-08T02:07:08.292Z,100651.38
2022-12-08T02:10:13.772Z,100650.47
2022-12-08T02:13:17.597Z,100630.09
2022-12-08T02:16:34.332Z,100638.50
2022-12-08T02:19:44.812Z,100637.59
2022-12-08T02:23:20.273Z,100635.00
2022-12-08T02:26:24.612Z,100632.44
2022-12-08T02:29:29.044Z,100625.56
2022-12-08T02:33:09.358Z,100635.75
2022-12-08T02:36:36.694Z,100634.84
2022-12-08T02:39:51.405Z,100633.16
2022-12-08T02:43:02.161Z,100625.47
2022-12-08T02:46:10.367Z,100609.28
2022-12-08T02:49:11.833Z,100610.97
2022-12-08T02:52:13.157Z,100610.16
2022-12-08T02:55:33.761Z,100608.41
2022-12-08T02:58:52.444Z,100608.41
2022-12-08T03:02:23.674Z,100607.66
2022-12-08T03:05:55.651Z,100599.25
2022-12-08T03:09:07.014Z,100594.97
2022-12-08T03:12:36.479Z,100595.94
2022-12-08T03:15:39.069Z,100592.59
2022-12-08T03:18:45.392Z,100581.63
2022-12-08T03:21:51.505Z,100573.19
2022-12-08T03:24:53.751Z,100577.44
2022-12-08T03:27:55.104Z,100573.22
2022-12-08T03:30:59.729Z,100571.53
2022-12-08T03:34:02.976Z,100574.06
2022-12-08T03:37:04.399Z,100572.38
2022-12-08T03:40:09.581Z,100564.72
2022-12-08T03:43:10.945Z,100569.78
2022-12-08T03:46:12.296Z,100577.41
2022-12-08T03:49:13.670Z,100578.22
2022-12-08T03:52:15.346Z,100573.94
2022-12-08T03:55:17.175Z,100566.34
2022-12-08T03:58:18.528Z,100558.69
2022-12-08T04:01:20.401Z,100560.34
2022-12-08T04:04:21.753Z,100565.44
2022-12-08T04:07:23.111Z,100555.34
2022-12-08T04:10:24.437Z,100558.78
2022-12-08T04:13:25.813Z,100555.47
2022-12-08T04:16:27.215Z,100543.63
2022-12-08T04:19:28.892Z,100542.78
2022-12-08T04:22:30.228Z,100532.72
2022-12-08T04:25:31.933Z,100533.59
2022-12-08T04:28:33.489Z,100533.53
2022-12-08T04:31:34.957Z,100530.19
2022-12-08T04:34:36.290Z,100524.25
2022-12-08T04:37:37.618Z,100525.16
2022-12-08T04:40:39.590Z,100518.34
2022-12-08T04:43:40.986Z,100521.84
2022-12-08T04:46:43.776Z,100533.72
2022-12-08T04:49:45.311Z,100522.88
2022-12-08T04:52:46.702Z,100517.84
2022-12-08T04:55:48.080Z,100511.94
2022-12-08T04:58:49.445Z,100504.31
2022-12-08T05:01:50.929Z,100502.66
2022-12-08T05:04:52.321Z,100515.41
2022-12-08T05:07:53.809Z,100521.34
2022-12-08T05:11:05.075Z,100519.63
2022-12-08T05:14:08.375Z,100513.72
2022-12-08T05:17:10.040Z,100513.69
2022-12-08T05:20:11.797Z,100519.56
2022-12-08T05:23:13.175Z,100501.84
2022-12-08T05:26:14.488Z,100505.16
2022-12-08T05:29:15.845Z,100498.38
2022-12-08T05:32:17.194Z,100500.91
2022-12-08T05:35:18.551Z,100503.41
2022-12-08T05:38:19.902Z,100507.56
2022-12-08T05:41:21.276Z,100506.72
2022-12-08T05:44:22.640Z,100510.06
2022-12-08T05:47:23.973Z,100516.88
2022-12-08T05:50:25.321Z,100513.53
2022-12-08T05:53:31.538Z,100525.41
2022-12-08T05:56:32.884Z,100529.72
2022-12-08T05:59:34.270Z,100532.28
2022-12-08T06:02:35.846Z,100531.41
2022-12-08T06:05:37.636Z,100531.34
2022-12-08T06:08:38.979Z,100529.59
2022-12-08T06:11:40.374Z,100527.91
2022-12-08T06:14:42.002Z,100523.63
2022-12-08T06:17:43.345Z,100528.66
2022-12-08T06:20:44.664Z,100534.63
2022-12-08T06:23:51.234Z,100531.19
2022-12-08T06:26:52.592Z,100536.25
2022-12-08T06:29:54.062Z,100526.09
2022-12-08T06:32:55.449Z,100531.19
2022-12-08T06:35:58.577Z,100543.00
2022-12-08T06:39:00.181Z,100548.94
2022-12-08T06:42:01.542Z,100537.00
2022-12-08T06:45:03.439Z,100537.88
2022-12-08T06:48:04.890Z,100546.38
2022-12-08T06:51:08.365Z,100535.34
2022-12-08T06:54:09.677Z,100536.19
2022-12-08T06:57:11.026Z,100537.88
2022-12-08T07:00:12.916Z,100539.50
2022-12-08T07:03:14.331Z,100537.88
2022-12-08T07:06:19.062Z,100542.06
2022-12-08T07:09:20.454Z,100541.25
2022-12-08T07:12:21.792Z,100555.66
2022-12-08T07:15:23.139Z,100546.28
2022-12-08T07:18:24.496Z,100551.34
2022-12-08T07:21:25.961Z,100547.97
2022-12-08T07:24:27.320Z,100553.91
2022-12-08T07:27:28.704Z,100557.38
2022-12-08T07:30:30.193Z,100565.06
2022-12-08T07:33:32.529Z,100557.56
2022-12-08T07:36:33.880Z,100549.09
2022-12-08T07:39:35.233Z,100556.75
2022-12-08T07:42:36.652Z,100555.09
2022-12-08T07:45:38.021Z,100560.06
2022-12-08T07:48:39.788Z,100566.06
2022-12-08T07:51:41.182Z,100566.88
2022-12-08T07:54:42.653Z,100562.72
2022-12-08T07:57:44.059Z,100567.81
2022-12-08T08:00:45.589Z,100561.91
2022-12-08T08:03:47.094Z,100562.88
2022-12-08T08:06:48.452Z,100564.59
2022-12-08T08:09:49.875Z,100563.78
2022-12-08T08:12:51.215Z,100567.97
2022-12-08T08:15:52.679Z,100563.75
2022-12-08T08:18:54.277Z,100572.19
2022-12-08T08:21:55.657Z,100571.25
2022-12-08T08:24:57.038Z,100572.09
2022-12-08T08:27:58.838Z,100568.69
2022-12-08T08:31:01.215Z,100570.41
2022-12-08T08:34:02.665Z,100574.69
2022-12-08T08:37:04.158Z,100574.72
2022-12-08T08:40:06.409Z,100572.19
2022-12-08T08:43:07.940Z,100567.19
2022-12-08T08:46:09.797Z,100574.00
2022-12-08T08:49:11.207Z,100575.75
2022-12-08T08:52:12.702Z,100576.63
2022-12-08T08:55:14.093Z,100579.97
2022-12-08T08:58:15.868Z,100571.50
2022-12-08T09:01:20.083Z,100574.78
2022-12-08T09:04:22.529Z,100571.31
2022-12-08T09:07:23.932Z,100579.44
2022-12-08T09:10:25.317Z,100575.06
2022-12-08T09:13:26.708Z,100585.88
2022-12-08T09:16:28.779Z,100599.41
2022-12-08T09:19:30.201Z,100607.81
2022-12-08T09:22:31.731Z,100610.31
2022-12-08T09:25:33.073Z,100609.38
2022-12-08T09:28:34.873Z,100607.72
2022-12-08T09:31:36.629Z,100609.34
2022-12-08T09:34:38.006Z,100611.72
2022-12-08T09:37:39.333Z,100612.59
2022-12-08T09:40:51.941Z,100616.66
2022-12-08T09:44:21.335Z,100618.22
2022-12-08T09:47:47.881Z,100617.19
2022-12-08T09:50:57.484Z,100608.47
2022-12-08T09:54:06.914Z,100621.16
2022-12-08T09:57:15.580Z,100615.31
2022-12-08T10:00:17.299Z,100621.25
2022-12-08T10:03:20.638Z,100623.44
2022-12-08T10:06:34.347Z,100619.63
2022-12-08T10:10:13.070Z,100624.41
2022-12-08T10:13:40.723Z,100618.03
2022-12-08T10:16:48.027Z,100615.50
2022-12-08T10:19:55.307Z,100619.88
2022-12-08T10:23:13.454Z,100620.78
2022-12-08T10:26:17.880Z,100614.72
2022-12-08T10:29:19.203Z,100612.81
2022-12-08T10:32:23.447Z,100615.06
2022-12-08T10:35:24.848Z,100612.06
2022-12-08T10:38:34.911Z,100601.88
2022-12-08T10:41:36.243Z,100603.63
2022-12-08T10:45:00.649Z,100613.69
2022-12-08T10:48:05.544Z,100603.66
2022-12-08T10:51:41.296Z,100608.63
2022-12-08T10:54:42.896Z,100617.16
2022-12-08T10:57:44.906Z,100618.41
2022-12-08T11:00:46.403Z,100617.53
2022-12-08T11:03:51.045Z,100626.84
2022-12-08T11:06:52.867Z,100625.06
2022-12-08T11:09:57.116Z,100620.53
2022-12-08T11:13:01.064Z,100621.00
2022-12-08T11:16:06.275Z,100622.41
2022-12-08T11:19:15.777Z,100619.44
2022-12-08T11:22:38.955Z,100620.38
2022-12-08T11:25:40.357Z,100620.56
2022-12-08T11:28:41.799Z,100623.28
2022-12-08T11:31:59.413Z,100629.06
2022-12-08T11:35:04.227Z,100619.13
2022-12-08T11:38:23.103Z,100618.56
2022-12-08T11:41:30.461Z,100617.84
2022-12-08T11:44:40.778Z,100610.19
2022-12-08T11:47:42.065Z,100627.19
2022-12-08T11:50:50.526Z,100621.47
2022-12-08T11:54:13.366Z,100619.94
2022-12-08T11:57:14.726Z,100610.75
2022-12-08T12:00:17.637Z,100607.28
2022-12-08T12:03:27.253Z,100614.09
2022-12-08T12:06:55.830Z,100616.53
2022-12-08T12:10:15.919Z,100610.44
2022-12-08T12:13:38.422Z,100614.38
2022-12-08T12:16:59.452Z,100611.72
2022-12-08T12:20:09.690Z,100613.06
2022-12-08T12:23:20.987Z,100609.84
2022-12-08T12:26:22.279Z,100614.28
2022-12-08T12:29:27.671Z,100614.47
2022-12-08T12:32:45.345Z,100615.63
2022-12-08T12:35:47.332Z,100612.22
2022-12-08T12:38:54.186Z,100614.00
2022-12-08T12:42:04.719Z,100615.75
2022-12-08T12:45:15.152Z,100623.56
2022-12-08T12:48:25.138Z,100615.47
2022-12-08T12:51:41.732Z,100620.56
2022-12-08T12:54:50.076Z,100614.41
2022-12-08T12:57:54.859Z,100622.78
2022-12-08T13:01:11.553Z,100620.97
2022-12-08T13:04:13.311Z,100622.50
2022-12-08T13:07:24.984Z,100615.91
2022-12-08T13:10:31.148Z,100613.47
2022-12-08T13:13:33.168Z,100610.16
2022-12-08T13:16:38.901Z,100609.56
2022-12-08T13:19:41.502Z,100609.00
2022-12-08T13:23:01.253Z,100613.41
2022-12-08T13:26:24.725Z,100616.06
2022-12-08T13:29:26.533Z,100609.44
2022-12-08T13:33:18.106Z,100617.25
2022-12-08T13:36:33.707Z,100626.59
2022-12-08T13:39:40.880Z,100628.13
2022-12-08T13:42:43.798Z,100627.09
2022-12-08T13:53:49.096Z,100625.22
2022-12-08T13:59:47.744Z,100638.13
2022-12-08T14:02:52.673Z,100643.16
2022-12-08T14:09:19.094Z,100639.84
2022-12-08T14:12:24.679Z,100639.72
2022-12-08T14:15:26.286Z,100643.13
2022-12-08T14:18:31.022Z,100638.78
2022-12-08T14:21:36.016Z,100654.88
2022-12-08T14:24:38.008Z,100654.06
2022-12-08T14:27:39.554Z,100658.38
2022-12-08T14:30:40.979Z,100654.09
2022-12-08T14:33:42.587Z,100658.41
2022-12-08T14:36:44.125Z,100662.72
2022-12-08T14:39:46.374Z,100663.69
2022-12-08T14:43:03.968Z,100673.09
2022-12-08T14:46:22.744Z,100663.88
2022-12-08T14:49:40.109Z,100669.09
2022-12-08T14:52:44.849Z,100666.56
2022-12-08T14:55:48.866Z,100668.28
2022-12-08T14:59:03.351Z,100670.03
2022-12-08T15:02:13.084Z,100665.78
2022-12-08T15:05:20.391Z,100671.00
2022-12-08T15:08:22.014Z,100671.78
2022-12-08T15:11:23.326Z,100683.63
2022-12-08T15:14:28.546Z,100666.59
2022-12-08T15:17:29.867Z,100676.03
2022-12-08T15:20:51.673Z,100676.19
2022-12-08T15:23:53.061Z,100675.28
2022-12-08T15:26:54.680Z,100685.59
2022-12-08T15:29:56.036Z,100687.34
2022-12-08T15:32:57.360Z,100686.63
2022-12-08T15:35:58.700Z,100687.59
2022-12-08T15:39:00.151Z,100697.84
2022-12-08T15:42:03.185Z,100700.38
2022-12-08T15:45:04.904Z,100707.13
2022-12-08T15:48:06.459Z,100712.16
2022-12-08T15:51:07.921Z,100709.63
2022-12-08T15:54:09.264Z,100712.97
2022-12-08T15:58:16.987Z,100709.53
2022-12-08T16:00:53.883Z,100710.44
2022-12-08T16:07:29.054Z,100711.25
2022-12-08T16:10:52.468Z,100717.38
2022-12-08T16:14:16.685Z,100725.28
2022-12-08T16:17:15.129Z,100715.28
2022-12-08T16:20:17.365Z,100724.81
2022-12-08T16:23:41.065Z,100730.88
2022-12-08T16:30:01.762Z,100738.69
2022-12-08T16:33:03.280Z,100730.34
2022-12-08T16:36:04.702Z,100737.25
2022-12-08T16:39:06.117Z,100743.25
2022-12-08T16:42:13.282Z,100740.56
2022-12-08T16:45:21.267Z,100744.69
2022-12-08T16:48:22.595Z,100742.84
2022-12-08T16:51:27.105Z,100745.38
2022-12-08T16:54:29.250Z,100752.19
2022-12-08T16:57:30.579Z,100758.91
2022-12-08T17:00:33.703Z,100754.50
2022-12-08T17:03:35.043Z,100757.81
2022-12-08T17:06:36.418Z,100756.16
2022-12-08T17:09:37.762Z,100751.91
2022-12-08T17:12:39.291Z,100764.66
2022-12-08T17:15:40.639Z,100767.06
2022-12-08T17:18:42.092Z,100766.22
2022-12-08T17:21:43.856Z,100761.06
2022-12-08T17:24:45.416Z,100763.63
2022-12-08T17:27:46.756Z,100758.66
2022-12-08T17:30:48.092Z,100758.66
2022-12-08T17:33:49.433Z,100755.28
2022-12-08T17:36:51.328Z,100759.63
2022-12-08T17:39:52.725Z,100763.13
2022-12-08T17:42:54.083Z,100764.22
2022-12-08T17:45:55.651Z,100768.66
2022-12-08T17:48:56.997Z,100768.72
2022-12-08T17:52:01.840Z,100770.44
2022-12-08T17:55:03.539Z,100768.78
2022-12-08T17:58:05.809Z,100771.41
2022-12-08T18:01:08.895Z,100757.22
2022-12-08T18:04:12.217Z,100759.97
2022-12-08T18:07:13.722Z,100759.19
2022-12-08T18:10:15.901Z,100761.03
2022-12-08T18:13:17.246Z,100756.94
2022-12-08T18:16:24.640Z,100751.06
2022-12-08T18:19:26.054Z,100744.44
2022-12-08T18:22:27.526Z,100740.22
2022-12-08T18:25:28.853Z,100747.03
2022-12-08T18:28:30.207Z,100746.31
2022-12-08T18:31:31.622Z,100748.84
2022-12-08T18:34:34.011Z,100750.53
2022-12-08T18:37:35.335Z,100751.44
2022-12-08T18:40:36.679Z,100754.91
2022-12-08T18:43:38.745Z,100749.03
2022-12-08T18:46:40.124Z,100750.75
2022-12-08T18:49:41.591Z,100754.19
2022-12-08T18:52:45.056Z,100751.69
2022-12-08T18:55:46.409Z,100756.75
2022-12-08T18:58:47.856Z,100749.97
2022-12-08T19:01:49.334Z,100753.38
2022-12-08T19:04:50.780Z,100761.84
2022-12-08T19:07:52.236Z,100759.34
2022-12-08T19:10:53.598Z,100764.44
2022-12-08T19:13:55.696Z,100763.63
2022-12-08T19:16:57.796Z,100767.91
2022-12-08T19:19:59.420Z,100773.78
2022-12-08T19:23:00.777Z,100775.50
2022-12-08T19:26:02.686Z,100777.19
2022-12-08T19:29:04.166Z,100772.94
2022-12-08T19:32:05.633Z,100772.94
2022-12-08T19:35:07.590Z,100784.75
2022-12-08T19:38:09.138Z,100783.06
2022-12-08T19:41:10.693Z,100780.53
2022-12-08T19:44:27.013Z,100783.91
2022-12-08T19:47:28.559Z,100793.22
2022-12-08T19:50:30.037Z,100796.59
2022-12-08T19:53:31.494Z,100799.94
2022-12-08T19:56:32.898Z,100803.38
2022-12-08T19:59:34.306Z,100801.66
2022-12-08T20:02:35.852Z,100800.81
2022-12-08T20:05:39.750Z,100796.63
2022-12-08T20:08:43.746Z,100805.94
2022-12-08T20:11:49.026Z,100811.00
2022-12-08T20:14:50.458Z,100813.53
2022-12-08T20:17:51.840Z,100817.78
2022-12-08T20:20:53.219Z,100817.78
2022-12-08T20:23:55.691Z,100826.19
2022-12-08T20:26:57.097Z,100823.69
2022-12-08T20:29:58.514Z,100825.38
2022-12-08T20:32:59.951Z,100819.47
2022-12-08T20:36:05.145Z,100821.97
2022-12-08T20:39:11.589Z,100813.53
2022-12-08T20:42:13.232Z,100816.06
2022-12-08T20:45:14.567Z,100825.38
2022-12-08T20:48:15.999Z,100827.94
2022-12-08T20:51:19.422Z,100826.25
2022-12-08T20:54:21.002Z,100829.63
2022-12-08T20:57:22.449Z,100829.66
2022-12-08T21:00:24.366Z,100822.09
2022-12-08T21:03:25.913Z,100824.59
2022-12-08T21:06:27.424Z,100821.22
2022-12-08T21:09:29.072Z,100825.47
2022-12-08T21:12:30.708Z,100827.19
2022-12-08T21:15:32.279Z,100822.97
2022-12-08T21:18:39.140Z,100817.88
2022-12-08T21:21:41.059Z,100824.63
2022-12-08T21:24:42.968Z,100827.19
2022-12-08T21:27:44.349Z,100823.78
2022-12-08T21:30:45.934Z,100826.31
2022-12-08T21:33:48.211Z,100833.06
2022-12-08T21:36:49.861Z,100833.91
2022-12-08T21:39:51.517Z,100835.59
2022-12-08T21:42:53.094Z,100833.06
2022-12-08T21:45:54.551Z,100833.03
2022-12-08T21:48:56.138Z,100833.88
2022-12-08T21:51:57.951Z,100829.69
2022-12-08T21:54:59.342Z,100833.88
2022-12-08T21:58:00.915Z,100839.75
2022-12-08T22:01:10.742Z,100838.03
2022-12-08T22:04:16.509Z,100843.09
2022-12-08T22:07:19.607Z,100844.72
2022-12-08T22:10:21.147Z,100836.31
2022-12-08T22:13:22.649Z,100838.00
2022-12-08T22:16:24.135Z,100840.53
2022-12-08T22:19:25.649Z,100842.19
2022-12-08T22:22:26.949Z,100843.94
2022-12-08T22:25:28.404Z,100839.72
2022-12-08T22:28:33.882Z,100841.41
2022-12-08T22:31:35.302Z,100839.69
2022-12-08T22:34:36.764Z,100836.31
2022-12-08T22:37:38.150Z,100832.97
2022-12-08T22:40:42.322Z,100833.78
2022-12-08T22:43:44.461Z,100836.31
2022-12-08T22:46:45.987Z,100841.38
2022-12-08T22:49:47.371Z,100843.06
2022-12-08T22:52:48.686Z,100840.56
2022-12-08T22:55:50.003Z,100845.63
2022-12-08T22:58:51.353Z,100841.38
2022-12-08T23:01:52.697Z,100837.19
2022-12-08T23:04:57.244Z,100838.84
2022-12-08T23:07:58.927Z,100833.81
2022-12-08T23:11:00.275Z,100837.97
2022-12-08T23:14:01.745Z,100838.00
2022-12-08T23:17:03.354Z,100844.75
2022-12-08T23:20:06.221Z,100840.53
2022-12-08T23:23:08.104Z,100843.06
2022-12-08T23:26:31.228Z,100843.06
2022-12-08T23:29:32.937Z,100846.44
2022-12-08T23:32:34.663Z,100846.47
2022-12-08T23:35:36.314Z,100846.47
2022-12-08T23:38:38.465Z,100841.41
2022-12-08T23:41:39.840Z,100847.25
2022-12-08T23:44:41.172Z,100843.06
2022-12-08T23:47:42.787Z,100843.06
2022-12-08T23:50:44.343Z,100838.88
2022-12-08T23:53:46.048Z,100842.25
2022-12-08T23:56:47.521Z,100844.81
2022-12-08T23:59:48.873Z,100849.81
